sensor_id;sensor_type;location;lat;lon;timestamp;temperature;humidity
46336;DHT22;31365;48.858;8.530;2022-07-11T00:00:08;15.20;99.90
46336;DHT22;31365;48.858;8.530;2022-07-11T00:02:38;15.10;99.90
46336;DHT22;31365;48.858;8.530;2022-07-11T00:05:08;15.10;99.90
46336;DHT22;31365;48.858;8.530;2022-07-11T00:07:38;15.10;99.90
46336;DHT22;31365;48.858;8.530;2022-07-11T00:10:07;15.00;99.90
46336;DHT22;31365;48.858;8.530;2022-07-11T00:12:35;15.00;99.90
46336;DHT22;31365;48.858;8.530;2022-07-11T00:15:05;15.00;99.90
46336;DHT22;31365;48.858;8.530;2022-07-11T00:17:33;15.00;99.90
46336;DHT22;31365;48.858;8.530;2022-07-11T00:20:02;15.10;99.90
46336;DHT22;31365;48.858;8.530;2022-07-11T00:22:31;15.10;99.90
46336;DHT22;31365;48.858;8.530;2022-07-11T00:25:01;15.10;99.90
46336;DHT22;31365;48.858;8.530;2022-07-11T00:27:30;15.00;99.90
46336;DHT22;31365;48.858;8.530;2022-07-11T00:29:58;15.00;99.90
46336;DHT22;31365;48.858;8.530;2022-07-11T00:32:26;15.10;99.90
46336;DHT22;31365;48.858;8.530;2022-07-11T00:34:55;15.20;99.90
46336;DHT22;31365;48.858;8.530;2022-07-11T00:37:23;15.20;99.90
46336;DHT22;31365;48.858;8.530;2022-07-11T00:39:52;15.20;99.90
46336;DHT22;31365;48.858;8.530;2022-07-11T00:42:21;15.20;99.90
46336;DHT22;31365;48.858;8.530;2022-07-11T00:44:49;15.30;99.90
46336;DHT22;31365;48.858;8.530;2022-07-11T00:47:18;15.30;99.90
46336;DHT22;31365;48.858;8.530;2022-07-11T00:49:46;15.40;99.90
46336;DHT22;31365;48.858;8.530;2022-07-11T00:52:15;15.40;99.90
46336;DHT22;31365;48.858;8.530;2022-07-11T00:54:45;15.50;99.90
46336;DHT22;31365;48.858;8.530;2022-07-11T00:57:14;15.50;99.90
46336;DHT22;31365;48.858;8.530;2022-07-11T00:59:44;15.60;99.90
46336;DHT22;31365;48.858;8.530;2022-07-11T01:02:13;15.60;99.90
46336;DHT22;31365;48.858;8.530;2022-07-11T01:04:42;15.60;99.90
46336;DHT22;31365;48.858;8.530;2022-07-11T01:07:10;15.60;99.90
46336;DHT22;31365;48.858;8.530;2022-07-11T01:09:39;15.60;99.90
46336;DHT22;31365;48.858;8.530;2022-07-11T01:12:08;15.70;99.90
46336;DHT22;31365;48.858;8.530;2022-07-11T01:14:36;15.70;99.90
46336;DHT22;31365;48.858;8.530;2022-07-11T01:17:06;15.70;99.90
46336;DHT22;31365;48.858;8.530;2022-07-11T01:19:35;15.80;99.90
46336;DHT22;31365;48.858;8.530;2022-07-11T01:22:04;15.90;99.90
46336;DHT22;31365;48.858;8.530;2022-07-11T01:24:34;15.90;99.90
46336;DHT22;31365;48.858;8.530;2022-07-11T01:27:04;15.90;99.90
46336;DHT22;31365;48.858;8.530;2022-07-11T01:29:32;16.00;99.90
46336;DHT22;31365;48.858;8.530;2022-07-11T01:32:01;15.90;99.90
46336;DHT22;31365;48.858;8.530;2022-07-11T01:34:29;16.00;99.90
46336;DHT22;31365;48.858;8.530;2022-07-11T01:36:58;16.00;99.90
46336;DHT22;31365;48.858;8.530;2022-07-11T01:39:26;16.10;99.90
46336;DHT22;31365;48.858;8.530;2022-07-11T01:41:58;16.10;99.90
46336;DHT22;31365;48.858;8.530;2022-07-11T01:44:26;16.10;99.90
46336;DHT22;31365;48.858;8.530;2022-07-11T01:46:55;16.10;99.90
46336;DHT22;31365;48.858;8.530;2022-07-11T01:49:23;16.20;99.90
46336;DHT22;31365;48.858;8.530;2022-07-11T01:51:56;16.20;99.90
46336;DHT22;31365;48.858;8.530;2022-07-11T01:54:25;16.10;99.90
46336;DHT22;31365;48.858;8.530;2022-07-11T01:56:54;16.20;99.90
46336;DHT22;31365;48.858;8.530;2022-07-11T01:59:23;16.10;99.90
46336;DHT22;31365;48.858;8.530;2022-07-11T02:01:52;16.20;99.90
46336;DHT22;31365;48.858;8.530;2022-07-11T02:04:21;16.20;99.90
46336;DHT22;31365;48.858;8.530;2022-07-11T02:06:49;16.30;99.90
46336;DHT22;31365;48.858;8.530;2022-07-11T02:09:17;16.20;99.90
46336;DHT22;31365;48.858;8.530;2022-07-11T02:11:46;16.20;99.90
46336;DHT22;31365;48.858;8.530;2022-07-11T02:14:14;16.20;99.90
46336;DHT22;31365;48.858;8.530;2022-07-11T02:16:44;16.30;99.90
46336;DHT22;31365;48.858;8.530;2022-07-11T02:19:13;16.30;99.90
46336;DHT22;31365;48.858;8.530;2022-07-11T02:21:42;16.30;99.90
46336;DHT22;31365;48.858;8.530;2022-07-11T02:24:10;16.30;99.90
46336;DHT22;31365;48.858;8.530;2022-07-11T02:26:39;16.30;99.90
46336;DHT22;31365;48.858;8.530;2022-07-11T02:29:07;16.20;99.90
46336;DHT22;31365;48.858;8.530;2022-07-11T02:31:36;16.30;99.90
46336;DHT22;31365;48.858;8.530;2022-07-11T02:34:06;16.30;99.90
46336;DHT22;31365;48.858;8.530;2022-07-11T02:36:34;16.30;99.90
46336;DHT22;31365;48.858;8.530;2022-07-11T02:39:03;16.30;99.90
46336;DHT22;31365;48.858;8.530;2022-07-11T02:41:31;16.30;99.90
46336;DHT22;31365;48.858;8.530;2022-07-11T02:43:59;16.30;99.90
46336;DHT22;31365;48.858;8.530;2022-07-11T02:46:28;16.40;99.90
46336;DHT22;31365;48.858;8.530;2022-07-11T02:48:56;16.30;99.90
46336;DHT22;31365;48.858;8.530;2022-07-11T02:51:26;16.20;99.90
46336;DHT22;31365;48.858;8.530;2022-07-11T02:53:54;16.30;99.90
46336;DHT22;31365;48.858;8.530;2022-07-11T02:56:22;16.30;99.90
46336;DHT22;31365;48.858;8.530;2022-07-11T02:58:51;16.20;99.90
46336;DHT22;31365;48.858;8.530;2022-07-11T03:01:19;16.20;99.90
46336;DHT22;31365;48.858;8.530;2022-07-11T03:03:47;16.30;99.90
46336;DHT22;31365;48.858;8.530;2022-07-11T03:06:16;16.20;99.90
46336;DHT22;31365;48.858;8.530;2022-07-11T03:08:46;16.20;99.90
46336;DHT22;31365;48.858;8.530;2022-07-11T03:11:15;16.20;99.90
46336;DHT22;31365;48.858;8.530;2022-07-11T03:13:44;16.20;99.90
46336;DHT22;31365;48.858;8.530;2022-07-11T03:16:12;16.30;99.90
46336;DHT22;31365;48.858;8.530;2022-07-11T03:18:40;16.30;99.90
46336;DHT22;31365;48.858;8.530;2022-07-11T03:21:09;16.20;99.90
46336;DHT22;31365;48.858;8.530;2022-07-11T03:23:38;16.20;99.90
46336;DHT22;31365;48.858;8.530;2022-07-11T03:26:08;16.30;99.90
46336;DHT22;31365;48.858;8.530;2022-07-11T03:28:36;16.20;99.90
46336;DHT22;31365;48.858;8.530;2022-07-11T03:31:05;16.30;99.90
46336;DHT22;31365;48.858;8.530;2022-07-11T03:33:33;16.30;99.90
46336;DHT22;31365;48.858;8.530;2022-07-11T03:36:01;16.20;99.90
46336;DHT22;31365;48.858;8.530;2022-07-11T03:38:30;16.30;99.90
46336;DHT22;31365;48.858;8.530;2022-07-11T03:40:58;16.20;99.90
46336;DHT22;31365;48.858;8.530;2022-07-11T03:43:28;16.20;99.90
46336;DHT22;31365;48.858;8.530;2022-07-11T03:45:57;16.20;99.90
46336;DHT22;31365;48.858;8.530;2022-07-11T03:48:27;16.30;99.90
46336;DHT22;31365;48.858;8.530;2022-07-11T03:50:55;16.20;99.90
46336;DHT22;31365;48.858;8.530;2022-07-11T03:53:23;16.20;99.90
46336;DHT22;31365;48.858;8.530;2022-07-11T03:55:52;16.20;99.90
46336;DHT22;31365;48.858;8.530;2022-07-11T03:58:20;16.20;99.90
46336;DHT22;31365;48.858;8.530;2022-07-11T04:00:50;16.20;99.90
46336;DHT22;31365;48.858;8.530;2022-07-11T04:03:18;16.10;99.90
46336;DHT22;31365;48.858;8.530;2022-07-11T04:05:47;16.30;99.90
46336;DHT22;31365;48.858;8.530;2022-07-11T04:08:15;16.20;99.90
46336;DHT22;31365;48.858;8.530;2022-07-11T04:10:44;16.20;99.90
46336;DHT22;31365;48.858;8.530;2022-07-11T04:13:18;16.20;99.90
46336;DHT22;31365;48.858;8.530;2022-07-11T04:15:46;16.20;99.90
46336;DHT22;31365;48.858;8.530;2022-07-11T04:18:16;16.20;99.90
46336;DHT22;31365;48.858;8.530;2022-07-11T04:20:44;16.20;99.90
46336;DHT22;31365;48.858;8.530;2022-07-11T04:23:13;16.20;99.90
46336;DHT22;31365;48.858;8.530;2022-07-11T04:25:42;16.20;99.90
46336;DHT22;31365;48.858;8.530;2022-07-11T04:28:11;16.30;99.90
46336;DHT22;31365;48.858;8.530;2022-07-11T04:30:39;16.20;99.90
46336;DHT22;31365;48.858;8.530;2022-07-11T04:33:07;16.20;99.90
46336;DHT22;31365;48.858;8.530;2022-07-11T04:35:38;16.30;99.90
46336;DHT22;31365;48.858;8.530;2022-07-11T04:38:07;16.20;99.90
46336;DHT22;31365;48.858;8.530;2022-07-11T04:40:35;16.30;99.90
46336;DHT22;31365;48.858;8.530;2022-07-11T04:43:04;16.30;99.90
46336;DHT22;31365;48.858;8.530;2022-07-11T04:45:32;16.20;99.90
46336;DHT22;31365;48.858;8.530;2022-07-11T04:48:01;16.30;99.90
46336;DHT22;31365;48.858;8.530;2022-07-11T04:50:29;16.20;99.90
46336;DHT22;31365;48.858;8.530;2022-07-11T04:52:59;16.30;99.90
46336;DHT22;31365;48.858;8.530;2022-07-11T04:55:27;16.30;99.90
46336;DHT22;31365;48.858;8.530;2022-07-11T04:57:56;16.30;99.90
46336;DHT22;31365;48.858;8.530;2022-07-11T05:00:25;16.20;99.90
46336;DHT22;31365;48.858;8.530;2022-07-11T05:02:53;16.30;99.90
46336;DHT22;31365;48.858;8.530;2022-07-11T05:05:22;16.20;99.90
46336;DHT22;31365;48.858;8.530;2022-07-11T05:07:51;16.30;99.90
46336;DHT22;31365;48.858;8.530;2022-07-11T05:10:21;16.30;99.90
46336;DHT22;31365;48.858;8.530;2022-07-11T05:12:49;16.20;99.90
46336;DHT22;31365;48.858;8.530;2022-07-11T05:15:17;16.20;99.90
46336;DHT22;31365;48.858;8.530;2022-07-11T05:17:46;16.20;99.90
46336;DHT22;31365;48.858;8.530;2022-07-11T05:20:14;16.30;99.90
46336;DHT22;31365;48.858;8.530;2022-07-11T05:22:43;16.30;99.90
46336;DHT22;31365;48.858;8.530;2022-07-11T05:25:11;16.40;99.90
46336;DHT22;31365;48.858;8.530;2022-07-11T05:27:41;16.40;99.90
46336;DHT22;31365;48.858;8.530;2022-07-11T05:30:10;16.40;99.90
46336;DHT22;31365;48.858;8.530;2022-07-11T05:32:39;16.50;99.90
46336;DHT22;31365;48.858;8.530;2022-07-11T05:35:08;16.50;99.90
46336;DHT22;31365;48.858;8.530;2022-07-11T05:37:36;16.50;99.90
46336;DHT22;31365;48.858;8.530;2022-07-11T05:40:06;16.50;99.90
46336;DHT22;31365;48.858;8.530;2022-07-11T05:42:36;16.50;99.90
46336;DHT22;31365;48.858;8.530;2022-07-11T05:45:07;16.60;99.90
46336;DHT22;31365;48.858;8.530;2022-07-11T05:47:36;16.70;99.90
46336;DHT22;31365;48.858;8.530;2022-07-11T05:50:05;16.80;99.90
46336;DHT22;31365;48.858;8.530;2022-07-11T05:52:34;16.80;99.90
46336;DHT22;31365;48.858;8.530;2022-07-11T05:55:03;16.90;99.90
46336;DHT22;31365;48.858;8.530;2022-07-11T05:57:31;17.00;99.90
46336;DHT22;31365;48.858;8.530;2022-07-11T06:00:00;17.10;99.90
46336;DHT22;31365;48.858;8.530;2022-07-11T06:02:36;17.20;99.90
46336;DHT22;31365;48.858;8.530;2022-07-11T06:05:05;17.30;99.90
46336;DHT22;31365;48.858;8.530;2022-07-11T06:07:34;17.40;99.90
46336;DHT22;31365;48.858;8.530;2022-07-11T06:10:26;17.50;99.90
46336;DHT22;31365;48.858;8.530;2022-07-11T06:12:55;17.60;99.90
46336;DHT22;31365;48.858;8.530;2022-07-11T06:15:25;17.70;99.90
46336;DHT22;31365;48.858;8.530;2022-07-11T06:17:54;17.80;99.90
46336;DHT22;31365;48.858;8.530;2022-07-11T06:20:22;18.00;99.90
46336;DHT22;31365;48.858;8.530;2022-07-11T06:22:51;18.00;99.90
46336;DHT22;31365;48.858;8.530;2022-07-11T06:25:20;18.10;99.90
46336;DHT22;31365;48.858;8.530;2022-07-11T06:27:48;18.20;99.90
46336;DHT22;31365;48.858;8.530;2022-07-11T06:30:19;18.30;99.90
46336;DHT22;31365;48.858;8.530;2022-07-11T06:32:48;18.50;99.90
46336;DHT22;31365;48.858;8.530;2022-07-11T06:35:18;18.60;99.90
46336;DHT22;31365;48.858;8.530;2022-07-11T06:37:46;18.80;99.90
46336;DHT22;31365;48.858;8.530;2022-07-11T06:40:15;18.90;99.90
46336;DHT22;31365;48.858;8.530;2022-07-11T06:42:44;18.90;99.90
46336;DHT22;31365;48.858;8.530;2022-07-11T06:45:13;18.90;99.90
46336;DHT22;31365;48.858;8.530;2022-07-11T06:47:41;19.00;99.90
46336;DHT22;31365;48.858;8.530;2022-07-11T06:50:10;19.10;99.90
46336;DHT22;31365;48.858;8.530;2022-07-11T06:52:39;19.20;99.90
46336;DHT22;31365;48.858;8.530;2022-07-11T06:55:07;19.40;99.90
46336;DHT22;31365;48.858;8.530;2022-07-11T06:57:36;19.50;99.90
46336;DHT22;31365;48.858;8.530;2022-07-11T07:00:05;19.50;99.90
46336;DHT22;31365;48.858;8.530;2022-07-11T07:02:34;19.70;99.90
46336;DHT22;31365;48.858;8.530;2022-07-11T07:05:05;19.70;99.90
46336;DHT22;31365;48.858;8.530;2022-07-11T07:07:40;19.70;99.90
46336;DHT22;31365;48.858;8.530;2022-07-11T07:10:09;19.90;99.90
46336;DHT22;31365;48.858;8.530;2022-07-11T07:12:38;19.90;99.90
46336;DHT22;31365;48.858;8.530;2022-07-11T07:15:08;20.00;99.90
46336;DHT22;31365;48.858;8.530;2022-07-11T07:17:37;20.00;99.90
46336;DHT22;31365;48.858;8.530;2022-07-11T07:20:06;20.00;99.90
46336;DHT22;31365;48.858;8.530;2022-07-11T07:22:37;20.00;99.90
46336;DHT22;31365;48.858;8.530;2022-07-11T07:25:08;20.00;99.90
46336;DHT22;31365;48.858;8.530;2022-07-11T07:27:37;20.00;99.90
46336;DHT22;31365;48.858;8.530;2022-07-11T07:30:06;20.10;99.90
46336;DHT22;31365;48.858;8.530;2022-07-11T07:32:35;20.20;99.90
46336;DHT22;31365;48.858;8.530;2022-07-11T07:35:05;20.20;99.90
46336;DHT22;31365;48.858;8.530;2022-07-11T07:37:33;20.30;99.90
46336;DHT22;31365;48.858;8.530;2022-07-11T07:40:02;20.40;99.90
46336;DHT22;31365;48.858;8.530;2022-07-11T07:42:33;20.50;99.90
46336;DHT22;31365;48.858;8.530;2022-07-11T07:45:08;20.60;99.90
46336;DHT22;31365;48.858;8.530;2022-07-11T07:47:37;20.60;99.90
46336;DHT22;31365;48.858;8.530;2022-07-11T07:50:06;20.60;99.90
46336;DHT22;31365;48.858;8.530;2022-07-11T07:52:35;20.60;99.90
46336;DHT22;31365;48.858;8.530;2022-07-11T07:55:05;20.50;99.90
46336;DHT22;31365;48.858;8.530;2022-07-11T07:57:36;20.50;99.90
46336;DHT22;31365;48.858;8.530;2022-07-11T08:00:05;20.50;99.90
46336;DHT22;31365;48.858;8.530;2022-07-11T08:02:52;20.50;99.90
46336;DHT22;31365;48.858;8.530;2022-07-11T08:05:21;20.60;99.90
46336;DHT22;31365;48.858;8.530;2022-07-11T08:07:49;20.60;99.90
46336;DHT22;31365;48.858;8.530;2022-07-11T08:10:18;20.60;99.90
46336;DHT22;31365;48.858;8.530;2022-07-11T08:12:47;20.60;99.90
46336;DHT22;31365;48.858;8.530;2022-07-11T08:15:16;20.70;99.90
46336;DHT22;31365;48.858;8.530;2022-07-11T08:17:44;20.80;99.90
46336;DHT22;31365;48.858;8.530;2022-07-11T08:20:12;20.90;99.90
46336;DHT22;31365;48.858;8.530;2022-07-11T08:22:40;20.90;99.90
46336;DHT22;31365;48.858;8.530;2022-07-11T08:25:09;20.90;99.90
46336;DHT22;31365;48.858;8.530;2022-07-11T08:27:37;21.00;99.90
46336;DHT22;31365;48.858;8.530;2022-07-11T08:30:09;21.00;99.90
46336;DHT22;31365;48.858;8.530;2022-07-11T08:32:39;21.00;99.90
46336;DHT22;31365;48.858;8.530;2022-07-11T08:35:09;21.10;99.90
46336;DHT22;31365;48.858;8.530;2022-07-11T08:37:38;21.20;99.90
46336;DHT22;31365;48.858;8.530;2022-07-11T08:40:08;21.20;99.90
46336;DHT22;31365;48.858;8.530;2022-07-11T08:42:40;21.20;99.90
46336;DHT22;31365;48.858;8.530;2022-07-11T08:45:12;21.20;99.90
46336;DHT22;31365;48.858;8.530;2022-07-11T08:47:41;21.20;99.90
46336;DHT22;31365;48.858;8.530;2022-07-11T08:50:12;21.10;99.90
46336;DHT22;31365;48.858;8.530;2022-07-11T08:52:41;21.20;99.90
46336;DHT22;31365;48.858;8.530;2022-07-11T08:55:10;21.20;99.90
46336;DHT22;31365;48.858;8.530;2022-07-11T08:57:38;21.30;99.90
46336;DHT22;31365;48.858;8.530;2022-07-11T09:00:08;21.50;99.90
46336;DHT22;31365;48.858;8.530;2022-07-11T09:02:41;21.80;99.90
46336;DHT22;31365;48.858;8.530;2022-07-11T09:05:12;21.90;99.90
46336;DHT22;31365;48.858;8.530;2022-07-11T09:07:43;22.00;99.90
46336;DHT22;31365;48.858;8.530;2022-07-11T09:10:15;22.00;99.90
46336;DHT22;31365;48.858;8.530;2022-07-11T09:13:00;22.00;99.50
46336;DHT22;31365;48.858;8.530;2022-07-11T09:15:34;22.10;99.90
46336;DHT22;31365;48.858;8.530;2022-07-11T09:18:29;22.10;99.70
46336;DHT22;31365;48.858;8.530;2022-07-11T09:21:02;22.20;99.10
46336;DHT22;31365;48.858;8.530;2022-07-11T09:23:51;22.20;98.60
46336;DHT22;31365;48.858;8.530;2022-07-11T09:26:40;22.40;98.30
46336;DHT22;31365;48.858;8.530;2022-07-11T09:29:14;22.50;97.70
46336;DHT22;31365;48.858;8.530;2022-07-11T09:31:44;22.40;97.80
46336;DHT22;31365;48.858;8.530;2022-07-11T09:34:15;22.50;98.40
46336;DHT22;31365;48.858;8.530;2022-07-11T09:36:46;22.60;97.70
46336;DHT22;31365;48.858;8.530;2022-07-11T09:39:16;22.70;97.60
46336;DHT22;31365;48.858;8.530;2022-07-11T09:41:46;23.00;97.60
46336;DHT22;31365;48.858;8.530;2022-07-11T09:44:18;23.20;97.10
46336;DHT22;31365;48.858;8.530;2022-07-11T09:46:49;23.50;97.00
46336;DHT22;31365;48.858;8.530;2022-07-11T09:49:31;23.80;96.80
46336;DHT22;31365;48.858;8.530;2022-07-11T09:52:08;24.00;96.60
46336;DHT22;31365;48.858;8.530;2022-07-11T09:54:54;24.10;95.90
46336;DHT22;31365;48.858;8.530;2022-07-11T09:57:30;24.10;95.60
46336;DHT22;31365;48.858;8.530;2022-07-11T09:59:59;24.30;95.40
46336;DHT22;31365;48.858;8.530;2022-07-11T10:02:30;24.20;95.70
46336;DHT22;31365;48.858;8.530;2022-07-11T10:05:01;24.20;95.10
46336;DHT22;31365;48.858;8.530;2022-07-11T10:07:31;24.20;95.20
46336;DHT22;31365;48.858;8.530;2022-07-11T10:10:01;24.10;94.90
46336;DHT22;31365;48.858;8.530;2022-07-11T10:12:32;24.00;95.40
46336;DHT22;31365;48.858;8.530;2022-07-11T10:15:02;23.90;96.00
46336;DHT22;31365;48.858;8.530;2022-07-11T10:17:41;23.80;96.30
46336;DHT22;31365;48.858;8.530;2022-07-11T10:20:22;23.80;96.40
46336;DHT22;31365;48.858;8.530;2022-07-11T10:23:06;24.00;96.00
46336;DHT22;31365;48.858;8.530;2022-07-11T10:25:49;23.90;95.50
46336;DHT22;31365;48.858;8.530;2022-07-11T10:28:30;24.00;96.20
46336;DHT22;31365;48.858;8.530;2022-07-11T10:31:04;24.20;95.70
46336;DHT22;31365;48.858;8.530;2022-07-11T10:34:00;24.20;95.40
46336;DHT22;31365;48.858;8.530;2022-07-11T10:36:33;24.30;95.80
46336;DHT22;31365;48.858;8.530;2022-07-11T10:39:18;24.40;94.90
46336;DHT22;31365;48.858;8.530;2022-07-11T10:41:51;24.40;94.50
46336;DHT22;31365;48.858;8.530;2022-07-11T10:44:19;24.50;94.70
46336;DHT22;31365;48.858;8.530;2022-07-11T10:46:48;24.80;94.50
46336;DHT22;31365;48.858;8.530;2022-07-11T10:49:18;24.70;93.90
46336;DHT22;31365;48.858;8.530;2022-07-11T10:52:04;24.50;94.10
46336;DHT22;31365;48.858;8.530;2022-07-11T10:55:05;24.50;94.40
46336;DHT22;31365;48.858;8.530;2022-07-11T10:58:00;24.60;94.40
46336;DHT22;31365;48.858;8.530;2022-07-11T11:00:32;24.80;93.30
46336;DHT22;31365;48.858;8.530;2022-07-11T11:03:03;24.70;93.20
46336;DHT22;31365;48.858;8.530;2022-07-11T11:05:47;24.80;94.00
46336;DHT22;31365;48.858;8.530;2022-07-11T11:08:46;24.80;93.40
46336;DHT22;31365;48.858;8.530;2022-07-11T11:11:34;24.90;93.30
46336;DHT22;31365;48.858;8.530;2022-07-11T11:14:22;25.00;93.70
46336;DHT22;31365;48.858;8.530;2022-07-11T11:16:54;24.90;93.10
46336;DHT22;31365;48.858;8.530;2022-07-11T11:19:54;25.00;94.10
46336;DHT22;31365;48.858;8.530;2022-07-11T11:22:23;25.10;93.40
46336;DHT22;31365;48.858;8.530;2022-07-11T11:24:55;25.30;92.60
46336;DHT22;31365;48.858;8.530;2022-07-11T11:28:01;25.50;92.70
46336;DHT22;31365;48.858;8.530;2022-07-11T11:30:31;25.80;92.70
46336;DHT22;31365;48.858;8.530;2022-07-11T11:33:00;26.10;92.60
46336;DHT22;31365;48.858;8.530;2022-07-11T11:35:28;26.50;91.50
46336;DHT22;31365;48.858;8.530;2022-07-11T11:37:58;27.30;91.10
46336;DHT22;31365;48.858;8.530;2022-07-11T11:40:29;28.10;90.50
46336;DHT22;31365;48.858;8.530;2022-07-11T11:42:57;29.10;87.10
46336;DHT22;31365;48.858;8.530;2022-07-11T11:45:26;29.80;84.40
46336;DHT22;31365;48.858;8.530;2022-07-11T11:47:54;30.20;82.70
46336;DHT22;31365;48.858;8.530;2022-07-11T11:50:22;30.40;83.20
46336;DHT22;31365;48.858;8.530;2022-07-11T11:52:50;30.60;81.40
46336;DHT22;31365;48.858;8.530;2022-07-11T11:55:19;31.30;78.80
46336;DHT22;31365;48.858;8.530;2022-07-11T11:57:49;31.70;76.40
46336;DHT22;31365;48.858;8.530;2022-07-11T12:00:22;32.20;75.20
46336;DHT22;31365;48.858;8.530;2022-07-11T12:03:13;32.70;74.80
46336;DHT22;31365;48.858;8.530;2022-07-11T12:05:53;33.00;73.90
46336;DHT22;31365;48.858;8.530;2022-07-11T12:08:26;32.70;72.90
46336;DHT22;31365;48.858;8.530;2022-07-11T12:10:56;32.30;74.30
46336;DHT22;31365;48.858;8.530;2022-07-11T12:13:26;31.90;74.80
46336;DHT22;31365;48.858;8.530;2022-07-11T12:15:55;31.40;75.90
46336;DHT22;31365;48.858;8.530;2022-07-11T12:18:41;31.40;74.40
46336;DHT22;31365;48.858;8.530;2022-07-11T12:21:11;32.20;74.20
46336;DHT22;31365;48.858;8.530;2022-07-11T12:23:41;33.10;71.60
46336;DHT22;31365;48.858;8.530;2022-07-11T12:26:10;34.10;69.80
46336;DHT22;31365;48.858;8.530;2022-07-11T12:29:04;34.80;68.00
46336;DHT22;31365;48.858;8.530;2022-07-11T12:31:44;35.50;66.80
46336;DHT22;31365;48.858;8.530;2022-07-11T12:34:15;35.40;65.40
46336;DHT22;31365;48.858;8.530;2022-07-11T12:36:45;34.70;66.10
46336;DHT22;31365;48.858;8.530;2022-07-11T12:39:24;34.40;66.70
46336;DHT22;31365;48.858;8.530;2022-07-11T12:41:54;34.90;65.80
46336;DHT22;31365;48.858;8.530;2022-07-11T12:44:26;35.40;64.80
46336;DHT22;31365;48.858;8.530;2022-07-11T12:47:14;35.80;63.30
46336;DHT22;31365;48.858;8.530;2022-07-11T12:49:44;36.20;62.50
46336;DHT22;31365;48.858;8.530;2022-07-11T12:52:12;36.70;62.10
46336;DHT22;31365;48.858;8.530;2022-07-11T12:54:41;36.80;60.10
46336;DHT22;31365;48.858;8.530;2022-07-11T12:57:15;36.40;59.70
46336;DHT22;31365;48.858;8.530;2022-07-11T12:59:45;36.30;59.30
46336;DHT22;31365;48.858;8.530;2022-07-11T13:02:15;36.30;59.40
46336;DHT22;31365;48.858;8.530;2022-07-11T13:04:47;36.60;59.00
46336;DHT22;31365;48.858;8.530;2022-07-11T13:07:23;36.90;58.30
46336;DHT22;31365;48.858;8.530;2022-07-11T13:10:13;36.70;58.20
46336;DHT22;31365;48.858;8.530;2022-07-11T13:12:44;36.10;58.50
46336;DHT22;31365;48.858;8.530;2022-07-11T13:15:15;34.90;61.00
46336;DHT22;31365;48.858;8.530;2022-07-11T13:17:46;33.60;61.40
46336;DHT22;31365;48.858;8.530;2022-07-11T13:20:18;32.70;63.20
46336;DHT22;31365;48.858;8.530;2022-07-11T13:22:49;32.20;64.40
46336;DHT22;31365;48.858;8.530;2022-07-11T13:25:19;31.80;66.00
46336;DHT22;31365;48.858;8.530;2022-07-11T13:27:50;32.20;66.50
46336;DHT22;31365;48.858;8.530;2022-07-11T13:30:21;32.90;65.40
46336;DHT22;31365;48.858;8.530;2022-07-11T13:33:15;33.90;64.90
46336;DHT22;31365;48.858;8.530;2022-07-11T13:35:43;33.80;63.60
46336;DHT22;31365;48.858;8.530;2022-07-11T13:38:12;33.30;64.80
46336;DHT22;31365;48.858;8.530;2022-07-11T13:40:41;33.10;65.60
46336;DHT22;31365;48.858;8.530;2022-07-11T13:43:09;33.30;64.80
46336;DHT22;31365;48.858;8.530;2022-07-11T13:45:41;33.00;66.60
46336;DHT22;31365;48.858;8.530;2022-07-11T13:48:11;32.80;66.80
46336;DHT22;31365;48.858;8.530;2022-07-11T13:50:40;32.60;66.30
46336;DHT22;31365;48.858;8.530;2022-07-11T13:53:08;33.40;64.20
46336;DHT22;31365;48.858;8.530;2022-07-11T13:55:37;34.00;63.20
46336;DHT22;31365;48.858;8.530;2022-07-11T13:58:06;33.90;62.80
46336;DHT22;31365;48.858;8.530;2022-07-11T14:00:57;33.50;63.10
46336;DHT22;31365;48.858;8.530;2022-07-11T14:03:27;32.50;65.40
46336;DHT22;31365;48.858;8.530;2022-07-11T14:05:55;31.80;66.50
46336;DHT22;31365;48.858;8.530;2022-07-11T14:08:24;31.20;68.10
46336;DHT22;31365;48.858;8.530;2022-07-11T14:10:52;30.80;68.80
46336;DHT22;31365;48.858;8.530;2022-07-11T14:13:21;30.80;69.30
46336;DHT22;31365;48.858;8.530;2022-07-11T14:15:49;31.00;69.20
46336;DHT22;31365;48.858;8.530;2022-07-11T14:18:19;32.10;68.10
46336;DHT22;31365;48.858;8.530;2022-07-11T14:20:47;33.10;65.50
46336;DHT22;31365;48.858;8.530;2022-07-11T14:23:16;33.60;65.20
46336;DHT22;31365;48.858;8.530;2022-07-11T14:25:44;33.60;64.20
46336;DHT22;31365;48.858;8.530;2022-07-11T14:28:13;33.20;64.70
46336;DHT22;31365;48.858;8.530;2022-07-11T14:30:49;32.50;65.70
46336;DHT22;31365;48.858;8.530;2022-07-11T14:33:19;31.90;66.50
46336;DHT22;31365;48.858;8.530;2022-07-11T14:35:48;31.50;67.90
46336;DHT22;31365;48.858;8.530;2022-07-11T14:38:16;31.30;69.40
46336;DHT22;31365;48.858;8.530;2022-07-11T14:40:45;31.20;68.60
46336;DHT22;31365;48.858;8.530;2022-07-11T14:43:22;31.00;69.10
46336;DHT22;31365;48.858;8.530;2022-07-11T14:45:51;31.70;69.00
46336;DHT22;31365;48.858;8.530;2022-07-11T14:48:20;33.00;66.80
46336;DHT22;31365;48.858;8.530;2022-07-11T14:50:48;33.60;64.90
46336;DHT22;31365;48.858;8.530;2022-07-11T14:53:17;33.20;65.10
46336;DHT22;31365;48.858;8.530;2022-07-11T14:55:45;32.60;66.40
46336;DHT22;31365;48.858;8.530;2022-07-11T14:58:35;31.90;68.10
46336;DHT22;31365;48.858;8.530;2022-07-11T15:01:03;31.10;69.60
46336;DHT22;31365;48.858;8.530;2022-07-11T15:03:32;30.30;70.40
46336;DHT22;31365;48.858;8.530;2022-07-11T15:06:11;30.40;70.30
46336;DHT22;31365;48.858;8.530;2022-07-11T15:08:41;31.40;69.10
46336;DHT22;31365;48.858;8.530;2022-07-11T15:11:27;32.30;67.30
46336;DHT22;31365;48.858;8.530;2022-07-11T15:14:14;32.50;66.90
46336;DHT22;31365;48.858;8.530;2022-07-11T15:16:43;32.50;66.90
46336;DHT22;31365;48.858;8.530;2022-07-11T15:19:13;31.90;68.00
46336;DHT22;31365;48.858;8.530;2022-07-11T15:21:41;31.40;69.40
46336;DHT22;31365;48.858;8.530;2022-07-11T15:24:10;30.90;70.50
46336;DHT22;31365;48.858;8.530;2022-07-11T15:26:38;30.70;71.20
46336;DHT22;31365;48.858;8.530;2022-07-11T15:29:06;30.30;71.60
46336;DHT22;31365;48.858;8.530;2022-07-11T15:31:37;29.90;72.00
46336;DHT22;31365;48.858;8.530;2022-07-11T15:34:05;29.50;73.70
46336;DHT22;31365;48.858;8.530;2022-07-11T15:36:33;29.20;73.80
46336;DHT22;31365;48.858;8.530;2022-07-11T15:39:02;29.00;74.20
46336;DHT22;31365;48.858;8.530;2022-07-11T15:41:30;28.70;75.00
46336;DHT22;31365;48.858;8.530;2022-07-11T15:43:59;28.50;75.70
46336;DHT22;31365;48.858;8.530;2022-07-11T15:46:27;28.40;74.60
46336;DHT22;31365;48.858;8.530;2022-07-11T15:49:02;28.30;75.60
46336;DHT22;31365;48.858;8.530;2022-07-11T15:51:30;28.30;75.70
46336;DHT22;31365;48.858;8.530;2022-07-11T15:54:01;28.30;76.10